Moores Creek National Battle, North Carolina
Current Conditions -  °F | °C
As of 11:53 PM on Saturday 22 Nov 2014 (Local Time) from KILM Reporting Station
Clear Clear  
Wind Chill: 44°   Ceiling: Unl
Heat Index: 44°   Visibility: 8mi
Dew Point: 43°   Wind: 0mph
Humidity: 96%   Direction: NA
Pressure: 30.32"   Gusts: NA
Location:  34.4336°N, 78.0678°W
Report Text: KILM 230453Z AUTO 00000KT 8SM CLR 07/06 A3032 RMK AO2 SLP265 T00670061 401441017
Loading
Personal Weather Stations






























Interactive Weather Map New forecast layout! Learn more

10-Day Weather Forecast

Advertisements
Track Severe Weather on mobile